sensor_id;sensor_type;location;lat;lon;timestamp;pressure;altitude;pressure_sealevel;temperature;humidity
21838;BME280;11081;45.946;6.140;2023-02-12T00:01:03;96798.44;;;2.90;62.47
21838;BME280;11081;45.946;6.140;2023-02-12T00:03:34;96796.59;;;2.92;62.44
21838;BME280;11081;45.946;6.140;2023-02-12T00:06:04;96791.44;;;2.92;62.16
21838;BME280;11081;45.946;6.140;2023-02-12T00:08:33;96791.44;;;2.92;62.51
21838;BME280;11081;45.946;6.140;2023-02-12T00:11:06;96789.66;;;2.93;62.22
21838;BME280;11081;45.946;6.140;2023-02-12T00:13:35;96789.75;;;2.91;62.53
21838;BME280;11081;45.946;6.140;2023-02-12T00:16:04;96790.47;;;2.93;62.68
21838;BME280;11081;45.946;6.140;2023-02-12T00:18:33;96784.38;;;2.94;62.46
21838;BME280;11081;45.946;6.140;2023-02-12T00:21:01;96790.22;;;2.96;62.45
21838;BME280;11081;45.946;6.140;2023-02-12T00:23:31;96777.59;;;2.93;62.46
21838;BME280;11081;45.946;6.140;2023-02-12T00:25:59;96779.44;;;2.91;62.57
21838;BME280;11081;45.946;6.140;2023-02-12T00:28:27;96772.94;;;2.87;62.76
21838;BME280;11081;45.946;6.140;2023-02-12T00:30:55;96773.22;;;2.84;62.83
21838;BME280;11081;45.946;6.140;2023-02-12T00:33:25;96774.84;;;2.85;62.92
21838;BME280;11081;45.946;6.140;2023-02-12T00:35:54;96772.94;;;2.87;62.62
21838;BME280;11081;45.946;6.140;2023-02-12T00:38:24;96764.25;;;2.88;62.44
21838;BME280;11081;45.946;6.140;2023-02-12T00:40:53;96763.16;;;2.81;62.56
21838;BME280;11081;45.946;6.140;2023-02-12T00:43:21;96774.00;;;2.75;62.90
21838;BME280;11081;45.946;6.140;2023-02-12T00:45:49;96769.81;;;2.74;63.11
21838;BME280;11081;45.946;6.140;2023-02-12T00:48:18;96769.66;;;2.75;63.05
21838;BME280;11081;45.946;6.140;2023-02-12T00:50:47;96774.00;;;2.75;63.02
21838;BME280;11081;45.946;6.140;2023-02-12T00:53:15;96772.38;;;2.74;63.34
21838;BME280;11081;45.946;6.140;2023-02-12T00:55:43;96782.25;;;2.69;63.39
21838;BME280;11081;45.946;6.140;2023-02-12T00:58:13;96781.56;;;2.67;63.17
21838;BME280;11081;45.946;6.140;2023-02-12T01:00:44;96779.66;;;2.69;63.05
21838;BME280;11081;45.946;6.140;2023-02-12T01:03:12;96788.94;;;2.71;62.70
21838;BME280;11081;45.946;6.140;2023-02-12T01:05:40;96780.38;;;2.71;63.31
21838;BME280;11081;45.946;6.140;2023-02-12T01:08:10;96780.88;;;2.65;63.43
21838;BME280;11081;45.946;6.140;2023-02-12T01:10:39;96782.09;;;2.61;63.78
21838;BME280;11081;45.946;6.140;2023-02-12T01:13:11;96787.25;;;2.61;63.28
21838;BME280;11081;45.946;6.140;2023-02-12T01:15:41;96782.34;;;2.58;63.36
21838;BME280;11081;45.946;6.140;2023-02-12T01:18:09;96784.00;;;2.59;63.57
21838;BME280;11081;45.946;6.140;2023-02-12T01:20:38;96787.50;;;2.58;63.30
21838;BME280;11081;45.946;6.140;2023-02-12T01:23:06;96793.19;;;2.52;63.22
21838;BME280;11081;45.946;6.140;2023-02-12T01:25:34;96793.44;;;2.49;63.55
21838;BME280;11081;45.946;6.140;2023-02-12T01:28:04;96791.56;;;2.51;63.07
21838;BME280;11081;45.946;6.140;2023-02-12T01:30:32;96794.81;;;2.53;62.99
21838;BME280;11081;45.946;6.140;2023-02-12T01:33:01;96801.34;;;2.57;62.82
21838;BME280;11081;45.946;6.140;2023-02-12T01:35:29;96794.00;;;2.52;62.83
21838;BME280;11081;45.946;6.140;2023-02-12T01:37:57;96793.19;;;2.52;62.86
21838;BME280;11081;45.946;6.140;2023-02-12T01:40:26;96795.06;;;2.50;62.96
21838;BME280;11081;45.946;6.140;2023-02-12T01:42:54;96801.41;;;2.45;63.47
21838;BME280;11081;45.946;6.140;2023-02-12T01:45:57;96793.94;;;2.42;62.77
21838;BME280;11081;45.946;6.140;2023-02-12T01:48:29;96791.63;;;2.39;63.26
21838;BME280;11081;45.946;6.140;2023-02-12T01:51:00;96790.69;;;2.40;62.88
21838;BME280;11081;45.946;6.140;2023-02-12T01:53:34;96788.13;;;2.40;63.38
21838;BME280;11081;45.946;6.140;2023-02-12T01:56:04;96783.91;;;2.39;63.10
21838;BME280;11081;45.946;6.140;2023-02-12T01:58:35;96782.28;;;2.38;63.12
21838;BME280;11081;45.946;6.140;2023-02-12T02:01:10;96783.91;;;2.39;63.20
21838;BME280;11081;45.946;6.140;2023-02-12T02:03:42;96780.38;;;2.40;63.21
21838;BME280;11081;45.946;6.140;2023-02-12T02:06:15;96779.28;;;2.33;63.63
21838;BME280;11081;45.946;6.140;2023-02-12T02:08:44;96772.50;;;2.32;64.00
21838;BME280;11081;45.946;6.140;2023-02-12T02:11:13;96771.56;;;2.33;63.64
21838;BME280;11081;45.946;6.140;2023-02-12T02:13:59;96778.47;;;2.33;63.86
21838;BME280;11081;45.946;6.140;2023-02-12T02:16:50;96765.72;;;2.31;64.09
21838;BME280;11081;45.946;6.140;2023-02-12T02:19:31;96753.53;;;2.33;64.05
21838;BME280;11081;45.946;6.140;2023-02-12T02:22:16;96767.09;;;2.35;63.84
21838;BME280;11081;45.946;6.140;2023-02-12T02:25:02;96761.94;;;2.35;63.94
21838;BME280;11081;45.946;6.140;2023-02-12T02:27:41;96757.59;;;2.36;64.29
21838;BME280;11081;45.946;6.140;2023-02-12T02:30:31;96755.66;;;2.28;64.96
21838;BME280;11081;45.946;6.140;2023-02-12T02:33:12;96759.03;;;2.29;64.36
21838;BME280;11081;45.946;6.140;2023-02-12T02:35:46;96750.28;;;2.31;64.19
21838;BME280;11081;45.946;6.140;2023-02-12T02:38:24;96755.66;;;2.28;64.67
21838;BME280;11081;45.946;6.140;2023-02-12T02:41:02;96754.03;;;2.27;64.71
21838;BME280;11081;45.946;6.140;2023-02-12T02:43:34;96745.63;;;2.25;64.01
21838;BME280;11081;45.946;6.140;2023-02-12T02:46:10;96754.28;;;2.24;64.68
21838;BME280;11081;45.946;6.140;2023-02-12T02:48:44;96749.94;;;2.25;65.17
21838;BME280;11081;45.946;6.140;2023-02-12T02:51:15;96754.03;;;2.27;64.35
21838;BME280;11081;45.946;6.140;2023-02-12T02:53:48;96750.50;;;2.28;64.79
21838;BME280;11081;45.946;6.140;2023-02-12T02:56:19;96748.06;;;2.27;64.38
21838;BME280;11081;45.946;6.140;2023-02-12T02:58:52;96749.13;;;2.24;64.52
21838;BME280;11081;45.946;6.140;2023-02-12T03:01:26;96747.75;;;2.20;64.51
21838;BME280;11081;45.946;6.140;2023-02-12T03:04:00;96747.50;;;2.23;65.17
21838;BME280;11081;45.946;6.140;2023-02-12T03:06:34;96740.47;;;2.25;64.89
21838;BME280;11081;45.946;6.140;2023-02-12T03:09:14;96738.44;;;2.29;64.44
21838;BME280;11081;45.946;6.140;2023-02-12T03:11:44;96739.38;;;2.28;64.69
21838;BME280;11081;45.946;6.140;2023-02-12T03:14:16;96742.41;;;2.33;64.25
21838;BME280;11081;45.946;6.140;2023-02-12T03:16:50;96747.25;;;2.26;64.94
21838;BME280;11081;45.946;6.140;2023-02-12T03:19:22;96735.31;;;2.25;64.69
21838;BME280;11081;45.946;6.140;2023-02-12T03:21:55;96735.84;;;2.19;64.83
21838;BME280;11081;45.946;6.140;2023-02-12T03:24:27;96738.00;;;2.14;65.21
21838;BME280;11081;45.946;6.140;2023-02-12T03:27:01;96739.63;;;2.15;65.15
21838;BME280;11081;45.946;6.140;2023-02-12T03:29:31;96736.91;;;2.17;65.06
21838;BME280;11081;45.946;6.140;2023-02-12T03:32:14;96737.31;;;2.12;64.97
21838;BME280;11081;45.946;6.140;2023-02-12T03:34:48;96730.94;;;2.16;64.48
21838;BME280;11081;45.946;6.140;2023-02-12T03:37:20;96730.69;;;2.19;64.59
21838;BME280;11081;45.946;6.140;2023-02-12T03:39:53;96731.22;;;2.13;65.00
21838;BME280;11081;45.946;6.140;2023-02-12T03:42:31;96734.28;;;2.07;65.10
21838;BME280;11081;45.946;6.140;2023-02-12T03:45:06;96732.78;;;2.04;65.04
21838;BME280;11081;45.946;6.140;2023-02-12T03:47:43;96734.53;;;2.04;65.16
21838;BME280;11081;45.946;6.140;2023-02-12T03:50:15;96741.19;;;2.06;64.92
21838;BME280;11081;45.946;6.140;2023-02-12T03:52:45;96736.84;;;2.07;65.39
21838;BME280;11081;45.946;6.140;2023-02-12T03:55:15;96742.53;;;2.01;65.05
21838;BME280;11081;45.946;6.140;2023-02-12T03:57:46;96740.63;;;2.03;65.33
21838;BME280;11081;45.946;6.140;2023-02-12T04:00:18;96737.13;;;2.04;64.88
21838;BME280;11081;45.946;6.140;2023-02-12T04:02:48;96743.88;;;2.05;65.33
21838;BME280;11081;45.946;6.140;2023-02-12T04:05:19;96750.94;;;2.03;65.46
21838;BME280;11081;45.946;6.140;2023-02-12T04:07:48;96747.66;;;2.01;65.26
21838;BME280;11081;45.946;6.140;2023-02-12T04:10:17;96746.03;;;2.00;65.40
21838;BME280;11081;45.946;6.140;2023-02-12T04:12:52;96748.19;;;1.95;65.33
21838;BME280;11081;45.946;6.140;2023-02-12T04:15:35;96740.03;;;1.90;65.76
21838;BME280;11081;45.946;6.140;2023-02-12T04:18:10;96743.56;;;1.89;65.85
21838;BME280;11081;45.946;6.140;2023-02-12T04:20:49;96742.63;;;1.90;66.13
21838;BME280;11081;45.946;6.140;2023-02-12T04:23:34;96748.69;;;1.89;65.77
21838;BME280;11081;45.946;6.140;2023-02-12T04:26:09;96741.41;;;1.94;65.67
21838;BME280;11081;45.946;6.140;2023-02-12T04:28:45;96741.41;;;1.94;65.72
21838;BME280;11081;45.946;6.140;2023-02-12T04:31:21;96743.03;;;1.95;65.40
21838;BME280;11081;45.946;6.140;2023-02-12T04:33:59;96744.66;;;1.96;65.97
21838;BME280;11081;45.946;6.140;2023-02-12T04:36:34;96747.66;;;2.01;65.70
21838;BME280;11081;45.946;6.140;2023-02-12T04:39:08;96746.97;;;1.99;65.73
21838;BME280;11081;45.946;6.140;2023-02-12T04:41:38;96753.34;;;1.95;65.81
21838;BME280;11081;45.946;6.140;2023-02-12T04:44:17;96742.22;;;1.94;65.86
21838;BME280;11081;45.946;6.140;2023-02-12T04:46:46;96745.22;;;1.99;65.74
21838;BME280;11081;45.946;6.140;2023-02-12T04:49:17;96744.13;;;1.92;65.82
21838;BME280;11081;45.946;6.140;2023-02-12T04:51:46;96748.56;;;1.90;66.32
21838;BME280;11081;45.946;6.140;2023-02-12T04:54:16;96754.53;;;1.91;66.10
21838;BME280;11081;45.946;6.140;2023-02-12T04:56:44;96750.34;;;1.90;65.63
21838;BME280;11081;45.946;6.140;2023-02-12T04:59:13;96750.06;;;1.93;65.43
21838;BME280;11081;45.946;6.140;2023-02-12T05:01:42;96747.06;;;1.88;66.04
21838;BME280;11081;45.946;6.140;2023-02-12T05:04:12;96740.25;;;1.87;65.71
21838;BME280;11081;45.946;6.140;2023-02-12T05:06:43;96739.56;;;1.84;66.11
21838;BME280;11081;45.946;6.140;2023-02-12T05:09:14;96737.00;;;1.84;66.13
21838;BME280;11081;45.946;6.140;2023-02-12T05:11:42;96746.22;;;1.87;65.72
21838;BME280;11081;45.946;6.140;2023-02-12T05:14:11;96744.25;;;1.91;65.88
21838;BME280;11081;45.946;6.140;2023-02-12T05:16:39;96738.63;;;1.86;66.22
21838;BME280;11081;45.946;6.140;2023-02-12T05:19:07;96735.13;;;1.87;66.29
21838;BME280;11081;45.946;6.140;2023-02-12T05:21:36;96734.88;;;1.90;66.14
21838;BME280;11081;45.946;6.140;2023-02-12T05:24:07;96735.63;;;1.80;66.40
21838;BME280;11081;45.946;6.140;2023-02-12T05:26:35;96741.03;;;1.77;66.32
21838;BME280;11081;45.946;6.140;2023-02-12T05:29:03;96742.66;;;1.78;66.57
21838;BME280;11081;45.946;6.140;2023-02-12T05:31:32;96734.53;;;1.73;66.43
21838;BME280;11081;45.946;6.140;2023-02-12T05:34:00;96751.03;;;1.71;66.69
21838;BME280;11081;45.946;6.140;2023-02-12T05:36:28;96741.81;;;1.68;66.20
21838;BME280;11081;45.946;6.140;2023-02-12T05:38:57;96732.47;;;1.67;66.20
21838;BME280;11081;45.946;6.140;2023-02-12T05:41:27;96730.13;;;1.64;66.57
21838;BME280;11081;45.946;6.140;2023-02-12T05:44:00;96731.06;;;1.63;66.61
21838;BME280;11081;45.946;6.140;2023-02-12T05:46:28;96720.06;;;1.61;66.79
21838;BME280;11081;45.946;6.140;2023-02-12T05:48:56;96723.84;;;1.57;67.12
21838;BME280;11081;45.946;6.140;2023-02-12T05:51:25;96725.47;;;1.58;66.70
21838;BME280;11081;45.946;6.140;2023-02-12T05:53:56;96718.00;;;1.55;66.69
21838;BME280;11081;45.946;6.140;2023-02-12T05:56:28;96729.41;;;1.41;66.87
21838;BME280;11081;45.946;6.140;2023-02-12T05:58:58;96736.53;;;1.49;66.95
21838;BME280;11081;45.946;6.140;2023-02-12T06:01:30;96739.78;;;1.51;66.85
21838;BME280;11081;45.946;6.140;2023-02-12T06:03:58;96736.03;;;1.55;66.36
21838;BME280;11081;45.946;6.140;2023-02-12T06:06:27;96736.03;;;1.55;66.91
21838;BME280;11081;45.946;6.140;2023-02-12T06:08:55;96740.22;;;1.56;66.45
21838;BME280;11081;45.946;6.140;2023-02-12T06:11:24;96739.53;;;1.54;66.40
21838;BME280;11081;45.946;6.140;2023-02-12T06:13:53;96732.75;;;1.53;66.39
21838;BME280;11081;45.946;6.140;2023-02-12T06:16:23;96737.66;;;1.56;66.42
21838;BME280;11081;45.946;6.140;2023-02-12T06:18:53;96746.31;;;1.55;66.85
21838;BME280;11081;45.946;6.140;2023-02-12T06:21:23;96744.00;;;1.52;67.03
21838;BME280;11081;45.946;6.140;2023-02-12T06:23:52;96744.94;;;1.51;66.56
21838;BME280;11081;45.946;6.140;2023-02-12T06:26:21;96743.31;;;1.50;67.01
21838;BME280;11081;45.946;6.140;2023-02-12T06:28:49;96748.69;;;1.47;66.67
21838;BME280;11081;45.946;6.140;2023-02-12T06:31:21;96746.81;;;1.49;67.12
21838;BME280;11081;45.946;6.140;2023-02-12T06:33:50;96746.56;;;1.52;66.85
21838;BME280;11081;45.946;6.140;2023-02-12T06:36:19;96741.69;;;1.49;66.74
21838;BME280;11081;45.946;6.140;2023-02-12T06:38:47;96741.00;;;1.47;67.35
21838;BME280;11081;45.946;6.140;2023-02-12T06:41:16;96745.19;;;1.48;66.96
21838;BME280;11081;45.946;6.140;2023-02-12T06:43:44;96741.69;;;1.49;66.98
21838;BME280;11081;45.946;6.140;2023-02-12T06:46:12;96743.06;;;1.53;67.61
21838;BME280;11081;45.946;6.140;2023-02-12T06:48:42;96744.69;;;1.54;67.53
21838;BME280;11081;45.946;6.140;2023-02-12T06:51:16;96753.34;;;1.53;67.55
21838;BME280;11081;45.946;6.140;2023-02-12T06:53:44;96747.50;;;1.51;67.69
21838;BME280;11081;45.946;6.140;2023-02-12T06:56:13;96742.25;;;1.52;67.76
21838;BME280;11081;45.946;6.140;2023-02-12T06:58:43;96749.56;;;1.57;66.93
21838;BME280;11081;45.946;6.140;2023-02-12T07:01:13;96737.66;;;1.56;66.63
21838;BME280;11081;45.946;6.140;2023-02-12T07:03:47;96754.97;;;1.54;66.99
21838;BME280;11081;45.946;6.140;2023-02-12T07:06:16;96754.97;;;1.54;67.07
21838;BME280;11081;45.946;6.140;2023-02-12T07:08:44;96749.56;;;1.57;66.99
21838;BME280;11081;45.946;6.140;2023-02-12T07:11:12;96746.63;;;1.62;67.35
21838;BME280;11081;45.946;6.140;2023-02-12T07:13:41;96751.63;;;1.63;66.89
21838;BME280;11081;45.946;6.140;2023-02-12T07:16:10;96764.75;;;1.60;67.73
21838;BME280;11081;45.946;6.140;2023-02-12T07:18:39;96759.59;;;1.60;67.83
21838;BME280;11081;45.946;6.140;2023-02-12T07:21:10;96762.88;;;1.62;67.75
21838;BME280;11081;45.946;6.140;2023-02-12T07:23:39;96758.19;;;1.67;67.51
21838;BME280;11081;45.946;6.140;2023-02-12T07:26:10;96762.38;;;1.68;67.07
21838;BME280;11081;45.946;6.140;2023-02-12T07:28:39;96763.50;;;1.75;67.40
21838;BME280;11081;45.946;6.140;2023-02-12T07:31:08;96771.66;;;1.80;67.83
21838;BME280;11081;45.946;6.140;2023-02-12T07:33:38;96764.63;;;1.82;67.20
21838;BME280;11081;45.946;6.140;2023-02-12T07:36:10;96772.56;;;1.91;67.40
21838;BME280;11081;45.946;6.140;2023-02-12T07:38:38;96763.38;;;1.98;67.64
21838;BME280;11081;45.946;6.140;2023-02-12T07:41:08;96773.63;;;1.88;67.83
21838;BME280;11081;45.946;6.140;2023-02-12T07:43:38;96767.41;;;1.91;67.26
21838;BME280;11081;45.946;6.140;2023-02-12T07:46:11;96770.09;;;1.89;67.29
21838;BME280;11081;45.946;6.140;2023-02-12T07:48:40;96772.44;;;1.71;67.65
21838;BME280;11081;45.946;6.140;2023-02-12T07:51:11;96768.78;;;1.53;68.86
21838;BME280;11081;45.946;6.140;2023-02-12T07:53:40;96775.94;;;1.70;68.39
21838;BME280;11081;45.946;6.140;2023-02-12T07:56:10;96785.47;;;1.79;68.41
21838;BME280;11081;45.946;6.140;2023-02-12T07:58:39;96774.75;;;1.95;68.05
21838;BME280;11081;45.946;6.140;2023-02-12T08:01:13;96773.84;;;2.06;67.27
21838;BME280;11081;45.946;6.140;2023-02-12T08:03:43;96774.59;;;2.18;67.40
21838;BME280;11081;45.946;6.140;2023-02-12T08:06:14;96778.94;;;2.17;66.91
21838;BME280;11081;45.946;6.140;2023-02-12T08:08:43;96780.28;;;2.21;67.43
21838;BME280;11081;45.946;6.140;2023-02-12T08:11:13;96781.06;;;2.12;68.04
21838;BME280;11081;45.946;6.140;2023-02-12T08:13:42;96789.38;;;1.95;69.26
21838;BME280;11081;45.946;6.140;2023-02-12T08:16:12;96793.41;;;1.88;69.17
21838;BME280;11081;45.946;6.140;2023-02-12T08:18:40;96791.25;;;1.93;68.96
21838;BME280;11081;45.946;6.140;2023-02-12T08:21:10;96796.69;;;2.20;67.92
21838;BME280;11081;45.946;6.140;2023-02-12T08:23:40;96794.47;;;2.36;66.96
21838;BME280;11081;45.946;6.140;2023-02-12T08:26:10;96798.56;;;2.49;66.33
21838;BME280;11081;45.946;6.140;2023-02-12T08:28:42;96799.44;;;2.59;65.84
21838;BME280;11081;45.946;6.140;2023-02-12T08:31:12;96792.94;;;2.64;65.22
21838;BME280;11081;45.946;6.140;2023-02-12T08:33:41;96795.00;;;2.70;65.14
21838;BME280;11081;45.946;6.140;2023-02-12T08:36:12;96790.03;;;2.79;65.08
21838;BME280;11081;45.946;6.140;2023-02-12T08:38:43;96788.25;;;2.79;64.90
21838;BME280;11081;45.946;6.140;2023-02-12T08:41:13;96786.38;;;2.81;65.26
21838;BME280;11081;45.946;6.140;2023-02-12T08:43:42;96788.13;;;2.90;65.34
21838;BME280;11081;45.946;6.140;2023-02-12T08:46:12;96784.38;;;2.94;65.94
21838;BME280;11081;45.946;6.140;2023-02-12T08:48:41;96784.38;;;2.94;66.31
21838;BME280;11081;45.946;6.140;2023-02-12T08:51:11;96774.28;;;2.82;67.09
21838;BME280;11081;45.946;6.140;2023-02-12T08:53:43;96782.44;;;2.77;67.33
21838;BME280;11081;45.946;6.140;2023-02-12T08:56:12;96778.69;;;3.00;66.89
21838;BME280;11081;45.946;6.140;2023-02-12T08:58:41;96786.28;;;3.12;66.77
21838;BME280;11081;45.946;6.140;2023-02-12T09:01:11;96782.50;;;3.16;66.46
21838;BME280;11081;45.946;6.140;2023-02-12T09:03:42;96781.41;;;3.28;66.23
21838;BME280;11081;45.946;6.140;2023-02-12T09:06:11;96789.72;;;3.41;65.88
21838;BME280;11081;45.946;6.140;2023-02-12T09:08:39;96786.19;;;3.42;65.68
21838;BME280;11081;45.946;6.140;2023-02-12T09:11:12;96788.50;;;3.45;66.07
21838;BME280;11081;45.946;6.140;2023-02-12T09:13:43;96779.81;;;3.46;66.16
21838;BME280;11081;45.946;6.140;2023-02-12T09:16:12;96794.50;;;3.55;65.61
21838;BME280;11081;45.946;6.140;2023-02-12T09:18:40;96792.59;;;3.57;65.93
21838;BME280;11081;45.946;6.140;2023-02-12T09:21:10;96786.06;;;3.63;65.61
21838;BME280;11081;45.946;6.140;2023-02-12T09:23:39;96789.88;;;3.59;66.03
21838;BME280;11081;45.946;6.140;2023-02-12T09:26:10;96787.16;;;3.60;66.40
21838;BME280;11081;45.946;6.140;2023-02-12T09:28:41;96780.06;;;3.82;65.61
21838;BME280;11081;45.946;6.140;2023-02-12T09:31:11;96780.59;;;3.85;65.27
21838;BME280;11081;45.946;6.140;2023-02-12T09:33:40;96776.81;;;3.80;65.39
21838;BME280;11081;45.946;6.140;2023-02-12T09:36:10;96780.06;;;3.82;65.04
21838;BME280;11081;45.946;6.140;2023-02-12T09:38:39;96778.81;;;3.95;65.35
21838;BME280;11081;45.946;6.140;2023-02-12T09:41:35;96777.16;;;4.04;65.49
21838;BME280;11081;45.946;6.140;2023-02-12T09:44:10;96777.28;;;4.12;65.27
21838;BME280;11081;45.946;6.140;2023-02-12T09:46:46;96779.19;;;4.10;65.54
21838;BME280;11081;45.946;6.140;2023-02-12T09:49:24;96771.44;;;4.20;65.00
21838;BME280;11081;45.946;6.140;2023-02-12T09:51:55;96781.91;;;4.18;65.59
21838;BME280;11081;45.946;6.140;2023-02-12T09:54:28;96772.13;;;4.12;64.81
21838;BME280;11081;45.946;6.140;2023-02-12T09:57:04;96769.38;;;4.23;64.19
21838;BME280;11081;45.946;6.140;2023-02-12T09:59:36;96764.97;;;4.34;64.38
21838;BME280;11081;45.946;6.140;2023-02-12T10:02:10;96764.16;;;4.43;63.34
21838;BME280;11081;45.946;6.140;2023-02-12T10:04:40;96754.28;;;4.56;63.58
21838;BME280;11081;45.946;6.140;2023-02-12T10:07:34;96769.41;;;4.51;63.17
21838;BME280;11081;45.946;6.140;2023-02-12T10:10:19;96772.56;;;4.45;63.49
21838;BME280;11081;45.946;6.140;2023-02-12T10:12:55;96768.16;;;4.55;63.51
21838;BME280;11081;45.946;6.140;2023-02-12T10:15:31;96770.81;;;4.73;62.46
21838;BME280;11081;45.946;6.140;2023-02-12T10:18:18;96762.91;;;4.74;62.69
21838;BME280;11081;45.946;6.140;2023-02-12T10:21:01;96768.66;;;4.68;62.30
21838;BME280;11081;45.946;6.140;2023-02-12T10:23:57;96759.34;;;4.75;63.06
21838;BME280;11081;45.946;6.140;2023-02-12T10:26:32;96766.16;;;4.76;62.40
21838;BME280;11081;45.946;6.140;2023-02-12T10:29:11;96770.47;;;4.85;63.04
21838;BME280;11081;45.946;6.140;2023-02-12T10:31:43;96766.88;;;4.96;63.11
21838;BME280;11081;45.946;6.140;2023-02-12T10:34:16;96763.41;;;5.94;61.20
21838;BME280;11081;45.946;6.140;2023-02-12T10:36:46;96764.47;;;5.66;60.36
21838;BME280;11081;45.946;6.140;2023-02-12T10:39:20;96769.06;;;5.36;62.05
21838;BME280;11081;45.946;6.140;2023-02-12T10:41:54;96758.41;;;5.39;61.24
21838;BME280;11081;45.946;6.140;2023-02-12T10:44:26;96752.41;;;5.39;62.31
21838;BME280;11081;45.946;6.140;2023-02-12T10:46:55;96750.72;;;5.47;62.06
21838;BME280;11081;45.946;6.140;2023-02-12T10:49:23;96748.28;;;5.46;61.02
21838;BME280;11081;45.946;6.140;2023-02-12T10:52:14;96736.81;;;5.48;60.94
21838;BME280;11081;45.946;6.140;2023-02-12T10:54:47;96743.00;;;5.56;60.31
21838;BME280;11081;45.946;6.140;2023-02-12T10:57:20;96733.09;;;5.69;60.56
21838;BME280;11081;45.946;6.140;2023-02-12T10:59:51;96730.06;;;5.56;61.72
21838;BME280;11081;45.946;6.140;2023-02-12T11:02:23;96728.53;;;5.63;60.91
21838;BME280;11081;45.946;6.140;2023-02-12T11:04:52;96725.06;;;5.80;60.52
21838;BME280;11081;45.946;6.140;2023-02-12T11:07:22;96727.63;;;5.98;59.76
21838;BME280;11081;45.946;6.140;2023-02-12T11:09:54;96720.44;;;6.09;60.08
21838;BME280;11081;45.946;6.140;2023-02-12T11:12:30;96715.94;;;6.20;60.16
21838;BME280;11081;45.946;6.140;2023-02-12T11:15:02;96715.47;;;6.24;59.75
21838;BME280;11081;45.946;6.140;2023-02-12T11:17:35;96722.66;;;6.30;59.35
21838;BME280;11081;45.946;6.140;2023-02-12T11:20:19;96708.25;;;6.36;59.55
21838;BME280;11081;45.946;6.140;2023-02-12T11:22:53;96711.81;;;6.35;58.84
21838;BME280;11081;45.946;6.140;2023-02-12T11:25:23;96706.38;;;6.46;59.02
21838;BME280;11081;45.946;6.140;2023-02-12T11:28:05;96704.78;;;6.61;57.98
21838;BME280;11081;45.946;6.140;2023-02-12T11:30:35;96705.47;;;6.71;58.19
21838;BME280;11081;45.946;6.140;2023-02-12T11:33:20;96699.66;;;6.78;58.08
21838;BME280;11081;45.946;6.140;2023-02-12T11:35:51;96696.41;;;6.67;58.87
21838;BME280;11081;45.946;6.140;2023-02-12T11:38:23;96689.28;;;6.78;58.64
21838;BME280;11081;45.946;6.140;2023-02-12T11:40:55;96689.31;;;6.94;57.95
21838;BME280;11081;45.946;6.140;2023-02-12T11:43:25;96681.53;;;7.02;57.52
21838;BME280;11081;45.946;6.140;2023-02-12T11:45:59;96677.97;;;7.03;58.13
21838;BME280;11081;45.946;6.140;2023-02-12T11:48:30;96676.38;;;7.18;57.57
21838;BME280;11081;45.946;6.140;2023-02-12T11:51:02;96673.47;;;7.29;58.00
21838;BME280;11081;45.946;6.140;2023-02-12T11:53:32;96672.78;;;7.27;57.66
21838;BME280;11081;45.946;6.140;2023-02-12T11:56:03;96667.28;;;7.39;57.44
21838;BME280;11081;45.946;6.140;2023-02-12T11:58:32;96666.00;;;7.51;56.67
21838;BME280;11081;45.946;6.140;2023-02-12T12:01:07;96657.22;;;7.60;56.38
21838;BME280;11081;45.946;6.140;2023-02-12T12:03:44;96652.50;;;7.55;56.04
21838;BME280;11081;45.946;6.140;2023-02-12T12:06:21;96647.47;;;7.54;56.03
21838;BME280;11081;45.946;6.140;2023-02-12T12:08:55;96656.22;;;7.61;56.35
21838;BME280;11081;45.946;6.140;2023-02-12T12:11:29;96648.25;;;7.79;55.47
21838;BME280;11081;45.946;6.140;2023-02-12T12:14:04;96655.22;;;7.94;55.85
21838;BME280;11081;45.946;6.140;2023-02-12T12:16:41;96643.97;;;8.02;55.42
21838;BME280;11081;45.946;6.140;2023-02-12T12:19:37;96632.72;;;8.10;54.62
21838;BME280;11081;45.946;6.140;2023-02-12T12:22:34;96638.25;;;8.15;53.38
21838;BME280;11081;45.946;6.140;2023-02-12T12:25:09;96637.91;;;8.18;54.09
21838;BME280;11081;45.946;6.140;2023-02-12T12:27:43;96634.50;;;8.09;53.95
21838;BME280;11081;45.946;6.140;2023-02-12T12:30:52;96629.47;;;8.16;51.98
21838;BME280;11081;45.946;6.140;2023-02-12T12:33:31;96629.94;;;8.19;52.92
21838;BME280;11081;45.946;6.140;2023-02-12T12:36:31;96624.53;;;8.29;53.94
21838;BME280;11081;45.946;6.140;2023-02-12T12:39:09;96634.00;;;8.22;53.79
21838;BME280;11081;45.946;6.140;2023-02-12T12:41:50;96623.91;;;8.35;53.39
21838;BME280;11081;45.946;6.140;2023-02-12T12:44:30;96625.28;;;8.46;53.27
21838;BME280;11081;45.946;6.140;2023-02-12T12:47:16;96617.94;;;8.58;52.03
21838;BME280;11081;45.946;6.140;2023-02-12T12:49:57;96616.78;;;8.60;51.27
21838;BME280;11081;45.946;6.140;2023-02-12T12:52:44;96616.19;;;8.73;50.67
21838;BME280;11081;45.946;6.140;2023-02-12T12:55:42;96611.34;;;8.70;50.55
21838;BME280;11081;45.946;6.140;2023-02-12T12:58:21;96611.66;;;8.75;51.36
21838;BME280;11081;45.946;6.140;2023-02-12T13:01:06;96611.66;;;8.75;49.56
21838;BME280;11081;45.946;6.140;2023-02-12T13:03:58;96606.72;;;8.80;49.54
21838;BME280;11081;45.946;6.140;2023-02-12T13:06:52;96600.75;;;8.94;49.22
21838;BME280;11081;45.946;6.140;2023-02-12T13:09:31;96604.56;;;9.06;49.96
21838;BME280;11081;45.946;6.140;2023-02-12T13:12:20;96602.88;;;9.13;49.61
21838;BME280;11081;45.946;6.140;2023-02-12T13:14:58;96592.81;;;9.10;49.35
21838;BME280;11081;45.946;6.140;2023-02-12T13:17:32;96598.03;;;9.10;49.56
21838;BME280;11081;45.946;6.140;2023-02-12T13:20:09;96591.06;;;9.26;50.21
21838;BME280;11081;45.946;6.140;2023-02-12T13:22:46;96594.38;;;9.20;50.16
21838;BME280;11081;45.946;6.140;2023-02-12T13:25:22;96600.22;;;9.22;50.08
21838;BME280;11081;45.946;6.140;2023-02-12T13:27:56;96589.34;;;9.18;51.04
21838;BME280;11081;45.946;6.140;2023-02-12T13:30:28;96597.00;;;9.20;50.36
21838;BME280;11081;45.946;6.140;2023-02-12T13:33:04;96591.97;;;9.33;50.95
21838;BME280;11081;45.946;6.140;2023-02-12T13:35:37;96598.31;;;9.53;50.61
21838;BME280;11081;45.946;6.140;2023-02-12T13:38:15;96596.69;;;9.52;49.90
21838;BME280;11081;45.946;6.140;2023-02-12T13:40:44;96593.31;;;9.66;50.75